createdAt,value
2023-03-07T00:01:48.730Z,15.47
2023-03-07T00:04:18.154Z,15.80
2023-03-07T00:06:47.211Z,14.60
2023-03-07T00:09:17.446Z,14.57
2023-03-07T00:11:46.384Z,14.60
2023-03-07T00:14:15.323Z,13.80
2023-03-07T00:16:44.248Z,12.70
2023-03-07T00:19:14.698Z,13.57
2023-03-07T00:21:43.951Z,12.97
2023-03-07T00:24:13.034Z,13.00
2023-03-07T00:26:41.984Z,12.37
2023-03-07T00:29:11.962Z,12.17
2023-03-07T00:31:41.224Z,12.10
2023-03-07T00:34:10.669Z,13.00
2023-03-07T00:36:41.216Z,12.13
2023-03-07T00:39:10.187Z,13.10
2023-03-07T00:41:39.746Z,12.87
2023-03-07T00:44:08.977Z,11.73
2023-03-07T00:46:38.104Z,11.77
2023-03-07T00:49:07.514Z,12.23
2023-03-07T00:51:41.238Z,12.03
2023-03-07T00:54:10.649Z,12.40
2023-03-07T00:56:40.352Z,12.57
2023-03-07T00:59:09.830Z,12.57
2023-03-07T01:01:39.659Z,12.63
2023-03-07T01:04:09.803Z,13.10
2023-03-07T01:06:40.575Z,12.97
2023-03-07T01:09:10.285Z,12.70
2023-03-07T01:11:39.893Z,12.40
2023-03-07T01:14:09.070Z,11.80
2023-03-07T01:16:40.049Z,11.87
2023-03-07T01:19:12.879Z,11.73
2023-03-07T01:21:45.515Z,11.93
2023-03-07T01:24:17.001Z,12.47
2023-03-07T01:26:46.006Z,11.57
2023-03-07T01:29:15.292Z,12.80
2023-03-07T01:31:47.199Z,13.67
2023-03-07T01:34:16.224Z,13.20
2023-03-07T01:36:46.665Z,12.83
2023-03-07T01:39:18.010Z,11.97
2023-03-07T01:41:47.588Z,11.73
2023-03-07T01:44:19.795Z,11.20
2023-03-07T01:46:53.002Z,11.50
2023-03-07T01:49:28.297Z,13.37
2023-03-07T01:52:06.322Z,15.43
2023-03-07T01:54:49.002Z,13.63
2023-03-07T01:57:20.408Z,13.70
2023-03-07T01:59:54.587Z,22.07
2023-03-07T02:02:25.274Z,20.83
2023-03-07T02:05:00.184Z,27.03
2023-03-07T02:07:36.480Z,22.63
2023-03-07T02:10:08.291Z,19.20
2023-03-07T02:12:37.491Z,18.47
2023-03-07T02:15:11.735Z,15.53
2023-03-07T02:17:42.934Z,15.70
2023-03-07T02:20:33.237Z,14.77
2023-03-07T02:23:06.090Z,14.40
2023-03-07T02:25:44.025Z,14.40
2023-03-07T02:28:19.280Z,15.00
2023-03-07T02:30:57.961Z,16.43
2023-03-07T02:33:27.499Z,15.27
2023-03-07T02:36:01.430Z,13.27
2023-03-07T02:38:36.736Z,13.23
2023-03-07T02:41:07.459Z,13.57
2023-03-07T02:43:37.958Z,15.10
2023-03-07T02:46:07.674Z,16.10
2023-03-07T02:48:36.792Z,15.13
2023-03-07T02:51:06.206Z,17.37
2023-03-07T02:53:35.519Z,16.40
2023-03-07T02:56:05.274Z,15.07
2023-03-07T02:58:34.584Z,15.80
2023-03-07T03:01:05.881Z,15.00
2023-03-07T03:03:35.116Z,15.77
2023-03-07T03:06:04.736Z,14.73
2023-03-07T03:08:33.886Z,12.63
2023-03-07T03:11:02.966Z,14.50
2023-03-07T03:13:31.934Z,13.07
2023-03-07T03:16:01.388Z,12.80
2023-03-07T03:18:32.843Z,12.90
2023-03-07T03:21:02.014Z,13.07
2023-03-07T03:23:31.126Z,12.73
2023-03-07T03:26:02.705Z,14.07
2023-03-07T03:28:31.776Z,13.33
2023-03-07T03:31:02.640Z,14.27
2023-03-07T03:33:34.072Z,13.00
2023-03-07T03:36:09.482Z,13.83
2023-03-07T03:38:39.277Z,14.20
2023-03-07T03:41:10.195Z,16.30
2023-03-07T03:43:39.372Z,16.33
2023-03-07T03:46:08.811Z,17.27
2023-03-07T03:48:39.300Z,19.67
2023-03-07T03:51:11.653Z,19.97
2023-03-07T03:53:42.155Z,21.10
2023-03-07T03:56:14.292Z,22.50
2023-03-07T03:58:44.402Z,22.23
2023-03-07T04:01:14.367Z,20.63
2023-03-07T04:03:49.483Z,20.87
2023-03-07T04:06:21.401Z,20.20
2023-03-07T04:08:51.452Z,21.10
2023-03-07T04:11:20.899Z,20.50
2023-03-07T04:13:50.703Z,20.67
2023-03-07T04:16:22.672Z,20.83
2023-03-07T04:18:53.770Z,22.20
2023-03-07T04:21:24.134Z,22.30
2023-03-07T04:23:55.783Z,22.87
2023-03-07T04:26:25.244Z,22.83
2023-03-07T04:28:54.733Z,22.73
2023-03-07T04:31:29.451Z,22.47
2023-03-07T04:34:00.600Z,22.17
2023-03-07T04:36:29.865Z,24.67
2023-03-07T04:38:59.045Z,23.30
2023-03-07T04:41:28.501Z,24.67
2023-03-07T04:43:57.690Z,23.03
2023-03-07T04:46:28.661Z,24.07
2023-03-07T04:48:59.442Z,22.73
2023-03-07T04:51:28.878Z,22.00
2023-03-07T04:53:58.835Z,20.73
2023-03-07T04:56:28.563Z,20.33
2023-03-07T04:58:57.611Z,21.80
2023-03-07T05:01:26.686Z,22.43
2023-03-07T05:03:56.558Z,22.07
2023-03-07T05:06:27.053Z,20.67
2023-03-07T05:08:56.200Z,21.83
2023-03-07T05:11:25.306Z,19.50
2023-03-07T05:13:57.234Z,19.03
2023-03-07T05:16:27.547Z,18.57
2023-03-07T05:18:56.685Z,18.33
2023-03-07T05:21:27.299Z,17.90
2023-03-07T05:23:56.269Z,16.77
2023-03-07T05:26:25.469Z,17.13
2023-03-07T05:28:55.070Z,16.77
2023-03-07T05:31:24.640Z,16.67
2023-03-07T05:33:53.776Z,18.57
2023-03-07T05:36:27.462Z,18.47
2023-03-07T05:38:57.497Z,17.53
2023-03-07T05:41:26.738Z,16.43
2023-03-07T05:43:55.817Z,16.33
2023-03-07T05:46:25.421Z,16.93
2023-03-07T05:48:55.410Z,18.17
2023-03-07T05:51:24.706Z,18.03
2023-03-07T05:53:55.649Z,17.13
2023-03-07T05:56:24.742Z,17.73
2023-03-07T05:58:53.808Z,16.57
2023-03-07T06:01:23.606Z,15.97
2023-03-07T06:03:52.822Z,17.00
2023-03-07T06:06:21.959Z,16.67
2023-03-07T06:08:50.836Z,16.93
2023-03-07T06:11:21.533Z,17.13
2023-03-07T06:13:50.390Z,17.90
2023-03-07T06:16:19.526Z,19.80
2023-03-07T06:18:48.802Z,20.57
2023-03-07T06:21:19.992Z,19.10
2023-03-07T06:23:48.802Z,18.57
2023-03-07T06:26:17.789Z,18.40
2023-03-07T06:28:48.159Z,18.80
2023-03-07T06:31:19.778Z,18.70
2023-03-07T06:33:49.377Z,20.03
2023-03-07T06:36:20.865Z,18.87
2023-03-07T06:38:50.252Z,20.20
2023-03-07T06:41:19.659Z,18.80
2023-03-07T06:43:53.360Z,20.47
2023-03-07T06:46:22.672Z,20.63
2023-03-07T06:48:52.304Z,20.33
2023-03-07T06:51:21.309Z,20.20
2023-03-07T06:53:50.286Z,23.77
2023-03-07T06:56:19.293Z,23.67
2023-03-07T06:58:49.720Z,23.87
2023-03-07T07:01:20.203Z,27.23
2023-03-07T07:03:49.464Z,27.03
2023-03-07T07:06:18.528Z,33.13
2023-03-07T07:08:47.495Z,41.10
2023-03-07T07:11:16.732Z,42.90
2023-03-07T07:13:46.302Z,43.93
2023-03-07T07:16:17.023Z,43.60
2023-03-07T07:18:47.041Z,41.57
2023-03-07T07:21:16.247Z,39.40
2023-03-07T07:23:45.413Z,39.23
2023-03-07T07:26:14.719Z,38.70
2023-03-07T07:28:43.706Z,35.47
2023-03-07T07:31:12.799Z,36.17
2023-03-07T07:33:43.798Z,35.43
2023-03-07T07:36:12.776Z,33.60
2023-03-07T07:38:41.852Z,36.77
2023-03-07T07:41:10.827Z,35.90
2023-03-07T07:43:39.908Z,34.70
2023-03-07T07:46:09.015Z,34.83
2023-03-07T07:48:38.006Z,34.43
2023-03-07T07:51:08.435Z,35.43
2023-03-07T07:53:37.420Z,36.27
2023-03-07T07:56:06.998Z,34.10
2023-03-07T07:58:36.356Z,32.33
2023-03-07T08:01:16.081Z,29.63
2023-03-07T08:03:45.079Z,29.50
2023-03-07T08:06:20.124Z,30.13
2023-03-07T08:08:49.368Z,35.70
2023-03-07T08:11:19.543Z,40.50
2023-03-07T08:13:48.754Z,37.37
2023-03-07T08:16:20.491Z,35.07
2023-03-07T08:18:53.486Z,36.10
2023-03-07T08:21:24.730Z,31.07
2023-03-07T08:23:54.813Z,33.87
2023-03-07T08:26:24.568Z,34.30
2023-03-07T08:28:53.642Z,33.50
2023-03-07T08:31:25.336Z,33.30
2023-03-07T08:33:54.633Z,30.27
2023-03-07T08:36:25.631Z,26.97
2023-03-07T08:38:54.809Z,26.67
2023-03-07T08:41:24.886Z,21.63
2023-03-07T08:43:54.810Z,22.50
2023-03-07T08:46:24.709Z,21.00
2023-03-07T08:48:53.863Z,21.60
2023-03-07T08:51:24.320Z,22.70
2023-03-07T08:53:53.323Z,21.80
2023-03-07T08:56:22.417Z,22.07
2023-03-07T08:58:54.885Z,21.23
2023-03-07T09:01:23.988Z,21.83
2023-03-07T09:03:53.115Z,29.93
2023-03-07T09:06:24.739Z,25.43
2023-03-07T09:08:53.958Z,25.50
2023-03-07T09:11:23.228Z,25.80
2023-03-07T09:13:53.318Z,26.50
2023-03-07T09:16:23.577Z,23.53
2023-03-07T09:18:52.701Z,23.67
2023-03-07T09:21:23.180Z,22.87
2023-03-07T09:23:52.171Z,24.03
2023-03-07T09:26:21.173Z,22.20
2023-03-07T09:28:50.187Z,23.33
2023-03-07T09:31:19.234Z,22.57
2023-03-07T09:33:48.432Z,21.73
2023-03-07T09:36:19.734Z,20.70
2023-03-07T09:38:50.261Z,19.70
2023-03-07T09:41:58.079Z,20.80
2023-03-07T09:44:57.474Z,21.27
2023-03-07T09:48:06.289Z,20.23
2023-03-07T09:50:46.598Z,20.33
2023-03-07T09:53:26.183Z,20.47
2023-03-07T09:56:00.547Z,20.70
2023-03-07T09:58:29.694Z,23.17
2023-03-07T10:01:01.772Z,31.93
2023-03-07T10:03:40.582Z,21.73
2023-03-07T10:06:17.882Z,22.33
2023-03-07T10:08:47.192Z,21.57
2023-03-07T10:11:34.969Z,21.07
2023-03-07T10:14:23.487Z,20.97
2023-03-07T10:17:08.619Z,19.55
2023-03-07T10:19:47.968Z,19.90
2023-03-07T10:22:33.239Z,20.25
2023-03-07T10:25:14.113Z,19.67
2023-03-07T10:27:49.174Z,17.90
2023-03-07T10:30:21.091Z,17.25
2023-03-07T10:32:54.716Z,16.88
2023-03-07T10:35:32.627Z,16.92
2023-03-07T10:38:15.260Z,16.60
2023-03-07T10:40:51.680Z,16.73
2023-03-07T10:43:28.042Z,16.58
2023-03-07T10:46:07.094Z,18.88
2023-03-07T10:48:43.750Z,19.13
2023-03-07T10:51:33.004Z,18.70
2023-03-07T10:54:02.751Z,18.05
2023-03-07T10:56:31.650Z,15.90
2023-03-07T10:59:09.627Z,15.05
2023-03-07T11:01:52.686Z,15.65
2023-03-07T11:04:24.949Z,14.48
2023-03-07T11:06:55.798Z,14.32
2023-03-07T11:09:29.213Z,13.73
2023-03-07T11:12:00.838Z,13.60
2023-03-07T11:14:31.512Z,13.55
2023-03-07T11:17:02.627Z,13.18
2023-03-07T11:19:42.194Z,13.55
2023-03-07T11:22:26.066Z,13.15
2023-03-07T11:25:14.616Z,13.23
2023-03-07T11:27:52.641Z,13.95
2023-03-07T11:30:28.711Z,13.93
2023-03-07T11:33:18.204Z,13.63
2023-03-07T11:36:09.388Z,16.60
2023-03-07T11:38:52.678Z,19.98
2023-03-07T11:41:29.275Z,22.60
2023-03-07T11:44:19.884Z,17.27
2023-03-07T11:47:29.703Z,14.53
2023-03-07T11:50:23.559Z,13.77
2023-03-07T11:53:30.286Z,13.30
2023-03-07T11:56:24.851Z,12.55
2023-03-07T11:59:25.130Z,13.80
2023-03-07T12:01:58.854Z,14.07
2023-03-07T12:04:58.509Z,12.85
2023-03-07T12:08:06.008Z,13.60
2023-03-07T12:10:52.789Z,13.25
2023-03-07T12:13:41.121Z,12.65
2023-03-07T12:16:24.268Z,13.02
2023-03-07T12:19:34.594Z,13.45
2023-03-07T12:22:29.044Z,13.23
2023-03-07T12:25:24.774Z,13.80
2023-03-07T12:28:09.881Z,15.35
2023-03-07T12:31:07.903Z,16.50
2023-03-07T12:33:56.385Z,15.27
2023-03-07T12:36:35.669Z,13.85
2023-03-07T12:39:19.930Z,14.60
2023-03-07T12:42:01.387Z,14.48
2023-03-07T12:44:42.158Z,14.05
2023-03-07T12:47:23.169Z,16.52
2023-03-07T12:50:00.682Z,23.77
2023-03-07T12:52:48.755Z,17.90
2023-03-07T12:55:25.876Z,14.57
2023-03-07T12:58:13.521Z,13.48
2023-03-07T13:00:51.438Z,14.68
2023-03-07T13:03:38.280Z,14.23
2023-03-07T13:06:14.684Z,13.63
2023-03-07T13:08:49.546Z,14.13
2023-03-07T13:11:24.521Z,13.25
2023-03-07T13:13:59.657Z,13.65
2023-03-07T13:16:47.123Z,18.23
2023-03-07T13:19:55.334Z,22.10
2023-03-07T13:23:25.740Z,16.67
2023-03-07T13:26:10.798Z,14.15
2023-03-07T13:28:51.423Z,14.90
2023-03-07T13:31:46.862Z,14.25
2023-03-07T13:34:51.741Z,14.37
2023-03-07T13:37:58.008Z,14.32
2023-03-07T13:40:54.758Z,16.02
2023-03-07T13:44:03.355Z,19.27
2023-03-07T13:46:49.101Z,15.47
2023-03-07T13:49:46.872Z,13.87
2023-03-07T13:52:45.987Z,12.77
2023-03-07T13:55:30.449Z,13.37
2023-03-07T13:58:16.485Z,13.50
2023-03-07T14:00:56.064Z,13.33
2023-03-07T14:03:37.107Z,13.90
2023-03-07T14:06:15.057Z,15.83
2023-03-07T14:08:45.614Z,16.48
2023-03-07T14:11:25.653Z,15.00
2023-03-07T14:14:16.925Z,12.60
2023-03-07T14:17:04.627Z,13.23
2023-03-07T14:19:55.521Z,12.73
2023-03-07T14:22:46.851Z,13.13
2023-03-07T14:25:25.347Z,26.38
2023-03-07T14:27:59.138Z,24.43
2023-03-07T14:30:31.509Z,13.40
2023-03-07T14:33:03.150Z,12.90
2023-03-07T14:35:41.417Z,13.87
2023-03-07T14:38:21.084Z,13.33
2023-03-07T14:41:21.214Z,12.70
2023-03-07T14:44:09.366Z,13.17
2023-03-07T14:46:57.280Z,13.07
2023-03-07T14:49:39.655Z,12.90
2023-03-07T14:52:28.257Z,12.87
2023-03-07T14:55:04.155Z,20.27
2023-03-07T14:57:38.185Z,27.00
2023-03-07T15:00:24.164Z,15.73
2023-03-07T15:02:55.346Z,18.37
2023-03-07T15:05:29.511Z,15.30
2023-03-07T15:07:58.964Z,13.93
2023-03-07T15:10:35.518Z,14.20
2023-03-07T15:13:13.901Z,13.95
2023-03-07T15:15:48.801Z,14.33
2023-03-07T15:18:23.116Z,16.50
2023-03-07T15:20:57.669Z,14.60
2023-03-07T15:23:30.032Z,14.40
2023-03-07T15:26:05.437Z,13.97
2023-03-07T15:28:37.026Z,14.13
2023-03-07T15:31:07.070Z,14.13
2023-03-07T15:33:36.846Z,13.67
2023-03-07T15:36:21.627Z,13.87
2023-03-07T15:38:52.625Z,13.57
2023-03-07T15:41:33.875Z,13.80
2023-03-07T15:44:21.267Z,14.40
2023-03-07T15:46:53.894Z,14.27
2023-03-07T15:49:35.494Z,17.60
2023-03-07T15:52:07.288Z,15.10
2023-03-07T15:54:40.865Z,16.80
2023-03-07T15:57:18.439Z,14.67
2023-03-07T15:59:52.851Z,14.90
2023-03-07T16:02:45.250Z,14.50
2023-03-07T16:05:38.642Z,14.80
2023-03-07T16:08:17.591Z,15.03
2023-03-07T16:10:54.370Z,15.07
2023-03-07T16:13:29.030Z,14.57
2023-03-07T16:16:05.692Z,15.50
2023-03-07T16:18:35.928Z,14.83
2023-03-07T16:21:04.969Z,15.10
2023-03-07T16:23:35.339Z,15.77
2023-03-07T16:26:06.599Z,14.87
2023-03-07T16:28:36.241Z,15.07
2023-03-07T16:31:10.888Z,16.23
2023-03-07T16:33:39.870Z,16.10
2023-03-07T16:36:10.672Z,15.87
2023-03-07T16:38:41.747Z,15.70
2023-03-07T16:41:18.116Z,14.93
2023-03-07T16:43:48.403Z,15.97
2023-03-07T16:46:19.555Z,15.50
2023-03-07T16:48:48.609Z,14.53
2023-03-07T16:51:21.135Z,15.33
2023-03-07T16:53:52.327Z,15.27
2023-03-07T16:56:27.486Z,15.23
2023-03-07T16:58:56.509Z,15.50
2023-03-07T17:01:25.639Z,16.50
2023-03-07T17:03:56.572Z,15.83
2023-03-07T17:06:37.087Z,15.80
2023-03-07T17:09:10.535Z,17.50
2023-03-07T17:11:41.422Z,34.47
2023-03-07T17:14:13.989Z,28.90
2023-03-07T17:16:46.985Z,23.00
2023-03-07T17:19:26.231Z,18.37
2023-03-07T17:21:55.217Z,16.80
2023-03-07T17:24:25.588Z,16.70
2023-03-07T17:26:55.749Z,17.07
2023-03-07T17:29:32.186Z,15.50
2023-03-07T17:32:01.435Z,15.83
2023-03-07T17:34:33.943Z,15.77
2023-03-07T17:37:03.932Z,15.73
2023-03-07T17:39:35.836Z,15.53
2023-03-07T17:42:05.784Z,15.37
2023-03-07T17:44:34.860Z,14.63
2023-03-07T17:47:04.159Z,15.87
2023-03-07T17:49:39.081Z,14.97
2023-03-07T17:52:09.250Z,15.50
2023-03-07T17:54:39.694Z,16.07
2023-03-07T17:57:09.160Z,16.77
2023-03-07T17:59:38.707Z,16.07
2023-03-07T18:02:08.035Z,15.97
2023-03-07T18:04:36.941Z,15.80
2023-03-07T18:07:06.326Z,15.30
2023-03-07T18:09:35.976Z,17.03
2023-03-07T18:12:06.946Z,16.67
2023-03-07T18:14:36.020Z,16.97
2023-03-07T18:17:05.119Z,16.77
2023-03-07T18:19:34.391Z,15.80
2023-03-07T18:22:03.665Z,18.53
2023-03-07T18:24:32.685Z,26.27
2023-03-07T18:27:05.400Z,28.87
2023-03-07T18:29:37.462Z,19.27
2023-03-07T18:32:07.290Z,17.00
2023-03-07T18:34:36.259Z,18.00
2023-03-07T18:37:08.347Z,17.90
2023-03-07T18:39:37.375Z,17.37
2023-03-07T18:42:06.829Z,17.40
2023-03-07T18:44:40.347Z,17.57
2023-03-07T18:47:10.721Z,18.73
2023-03-07T18:49:39.718Z,18.33
2023-03-07T18:52:08.679Z,17.87
2023-03-07T18:54:37.678Z,18.23
2023-03-07T18:57:06.527Z,37.40
2023-03-07T18:59:37.089Z,24.47
2023-03-07T19:02:24.588Z,25.00
2023-03-07T19:04:55.483Z,23.60
2023-03-07T19:07:24.483Z,19.83
2023-03-07T19:09:53.811Z,20.07
2023-03-07T19:12:22.812Z,19.87
2023-03-07T19:14:53.194Z,20.50
2023-03-07T19:17:22.135Z,20.53
2023-03-07T19:19:53.232Z,19.10
2023-03-07T19:22:25.365Z,19.00
2023-03-07T19:24:55.367Z,19.23
2023-03-07T19:27:24.282Z,19.67
2023-03-07T19:29:54.911Z,19.03
2023-03-07T19:32:23.719Z,19.80
2023-03-07T19:34:52.617Z,19.27
2023-03-07T19:37:21.575Z,19.70
2023-03-07T19:39:53.453Z,29.20
2023-03-07T19:42:22.616Z,25.20
2023-03-07T19:44:51.463Z,48.40
2023-03-07T19:47:21.946Z,26.73
2023-03-07T19:49:50.974Z,20.53
2023-03-07T19:52:19.794Z,25.33
2023-03-07T19:54:48.827Z,20.33
2023-03-07T19:57:17.709Z,19.90
2023-03-07T19:59:46.993Z,21.97
2023-03-07T20:02:16.109Z,22.27
2023-03-07T20:04:46.489Z,21.37
2023-03-07T20:07:15.626Z,21.60
2023-03-07T20:09:44.563Z,22.17
2023-03-07T20:12:14.445Z,22.50
2023-03-07T20:14:44.717Z,21.73
2023-03-07T20:17:14.313Z,22.57
2023-03-07T20:19:43.529Z,21.73
2023-03-07T20:22:17.652Z,23.00
2023-03-07T20:24:46.521Z,24.07
2023-03-07T20:27:20.488Z,23.37
2023-03-07T20:29:49.953Z,23.37
2023-03-07T20:32:19.481Z,23.00
2023-03-07T20:34:53.410Z,22.90
2023-03-07T20:37:23.813Z,23.07
2023-03-07T20:39:52.762Z,23.73
2023-03-07T20:42:21.838Z,26.20
2023-03-07T20:44:50.765Z,24.07
2023-03-07T20:47:20.249Z,23.63
2023-03-07T20:49:49.188Z,24.07
2023-03-07T20:52:18.061Z,23.63
2023-03-07T20:54:48.358Z,24.70
2023-03-07T20:57:17.213Z,24.20
2023-03-07T20:59:46.119Z,24.43
2023-03-07T21:02:14.995Z,24.80
2023-03-07T21:04:43.956Z,24.00
2023-03-07T21:07:12.913Z,23.77
2023-03-07T21:09:42.058Z,23.43
2023-03-07T21:12:13.159Z,24.40
2023-03-07T21:14:42.216Z,26.93
2023-03-07T21:23:05.858Z,24.33
2023-03-07T21:25:34.760Z,23.90
2023-03-07T21:28:05.167Z,24.53
2023-03-07T21:30:34.165Z,24.67
2023-03-07T21:33:02.928Z,25.03
2023-03-07T21:35:32.022Z,23.93
2023-03-07T21:38:00.936Z,23.37
2023-03-07T21:40:29.744Z,22.57
2023-03-07T21:42:58.548Z,21.73
2023-03-07T21:45:28.868Z,22.53
2023-03-07T21:47:57.823Z,22.97
2023-03-07T21:50:26.813Z,22.40
2023-03-07T21:52:55.686Z,23.10
2023-03-07T21:55:25.007Z,23.07
2023-03-07T21:57:54.224Z,24.00
2023-03-07T22:00:24.302Z,23.93
2023-03-07T22:02:54.912Z,22.83
2023-03-07T22:05:24.062Z,22.10
2023-03-07T22:07:53.498Z,20.77
2023-03-07T22:10:22.290Z,21.50
2023-03-07T22:12:51.118Z,20.70
2023-03-07T22:15:20.285Z,21.30
2023-03-07T22:17:49.146Z,21.00
2023-03-07T22:20:19.747Z,20.70
2023-03-07T22:22:48.601Z,19.80
2023-03-07T22:25:17.540Z,19.70
2023-03-07T22:27:46.500Z,20.13
2023-03-07T22:30:15.715Z,21.60
2023-03-07T22:32:46.247Z,19.90
2023-03-07T22:35:15.193Z,22.33
2023-03-07T22:37:45.708Z,21.37
2023-03-07T22:40:15.329Z,21.17
2023-03-07T22:42:44.243Z,21.63
2023-03-07T22:45:13.872Z,18.60
2023-03-07T22:47:42.912Z,20.23
2023-03-07T22:50:13.175Z,20.03
2023-03-07T22:52:42.147Z,19.30
2023-03-07T22:55:12.725Z,20.00
2023-03-07T22:57:41.580Z,19.77
2023-03-07T23:00:12.601Z,19.03
2023-03-07T23:02:41.533Z,18.10
2023-03-07T23:05:11.369Z,18.30
2023-03-07T23:07:40.780Z,19.17
2023-03-07T23:10:13.161Z,18.80
2023-03-07T23:12:42.060Z,19.43
2023-03-07T23:15:11.786Z,20.03
2023-03-07T23:17:40.714Z,20.13
2023-03-07T23:20:11.600Z,19.37
2023-03-07T23:22:42.855Z,19.53
2023-03-07T23:25:15.141Z,20.37
2023-03-07T23:27:44.097Z,19.60
2023-03-07T23:30:13.916Z,19.70
2023-03-07T23:32:43.085Z,19.80
2023-03-07T23:35:12.811Z,19.33
2023-03-07T23:37:42.753Z,19.50
2023-03-07T23:40:15.479Z,18.97
2023-03-07T23:42:44.416Z,18.90
2023-03-07T23:45:13.451Z,18.33
2023-03-07T23:47:42.323Z,17.33
2023-03-07T23:50:12.798Z,17.63
2023-03-07T23:52:41.736Z,17.43
2023-03-07T23:55:13.352Z,17.70
2023-03-07T23:57:42.835Z,17.03
